Time;durP1;ratioP1;P1;durP2;ratioP2;P2;SDS_P1;SDS_P2;PMS_P1;PMS_P2;Temp;Humidity;BMP_temperature;BMP_pressure;BME280_temperature;BME280_humidity;BME280_pressure;Samples;Min_cycle;Max_cycle;Signal;HPM_P1;HPM_P2
2023/03/09 00:01:36;;;;;;;2.60;1.87;;;;;;;10.73;100.00;94093.00;5017192;28;20247;-71
2023/03/09 00:04:03;;;;;;;2.47;1.60;;;;;;;10.73;100.00;94090.38;5016815;28;20232;-69
2023/03/09 00:06:31;;;;;;;4.07;1.50;;;;;;;10.70;100.00;94098.72;5016862;28;20240;-70
2023/03/09 00:08:57;;;;;;;2.20;1.47;;;;;;;10.67;100.00;94095.75;5016711;28;20206;-74
2023/03/09 00:11:25;;;;;;;2.53;1.60;;;;;;;10.76;100.00;94086.47;5016889;28;20425;-70
2023/03/09 00:13:53;;;;;;;2.70;1.70;;;;;;;10.80;100.00;94082.34;5016182;28;20764;-69
2023/03/09 00:16:21;;;;;;;5.03;1.67;;;;;;;10.69;100.00;94068.16;5016554;28;20256;-69
2023/03/09 00:18:50;;;;;;;1.57;1.27;;;;;;;10.68;100.00;94058.66;5016856;28;20221;-73
2023/03/09 00:21:34;;;;;;;5.03;1.63;;;;;;;10.63;100.00;94068.28;5016626;28;20222;-69
2023/03/09 00:24:00;;;;;;;1.47;1.20;;;;;;;10.74;100.00;94078.00;5015354;28;20515;-73
2023/03/09 00:26:27;;;;;;;2.43;1.40;;;;;;;10.61;100.00;94084.28;5016238;28;20664;-72
2023/03/09 00:28:55;;;;;;;4.20;1.10;;;;;;;10.76;100.00;94070.69;5016653;28;20210;-71
2023/03/09 00:31:21;;;;;;;2.30;1.20;;;;;;;10.72;100.00;94069.53;5016205;28;20229;-70
2023/03/09 00:33:48;;;;;;;4.30;1.60;;;;;;;10.83;100.00;94066.06;5015953;28;20232;-72
2023/03/09 00:36:15;;;;;;;2.63;1.53;;;;;;;10.92;100.00;94051.53;5016677;28;20201;-73
2023/03/09 00:38:42;;;;;;;2.60;1.30;;;;;;;10.84;100.00;94046.63;5016196;28;20202;-71
2023/03/09 00:41:08;;;;;;;5.57;1.70;;;;;;;10.74;100.00;94041.91;5016472;28;20202;-70
2023/03/09 00:43:35;;;;;;;2.73;1.40;;;;;;;10.79;100.00;94043.88;5016356;28;20221;-73
2023/03/09 00:46:03;;;;;;;1.97;1.43;;;;;;;10.87;100.00;94054.88;5015775;28;20567;-72
2023/03/09 00:48:29;;;;;;;4.07;1.60;;;;;;;10.83;100.00;94040.53;5015382;28;20939;-72
2023/03/09 00:50:55;;;;;;;1.90;1.10;;;;;;;10.84;100.00;94038.72;5016479;28;20205;-74
2023/03/09 00:53:22;;;;;;;2.63;1.50;;;;;;;10.89;100.00;94041.44;5015732;28;20225;-70
2023/03/09 00:55:48;;;;;;;4.37;1.40;;;;;;;10.95;100.00;94021.03;5015321;28;20453;-74
2023/03/09 00:58:15;;;;;;;7.60;1.23;;;;;;;10.91;100.00;94023.56;5016348;28;20217;-71
2023/03/09 01:00:41;;;;;;;3.77;1.20;;;;;;;10.99;100.00;94027.44;5016257;28;20197;-70
2023/03/09 01:03:09;;;;;;;2.00;1.30;;;;;;;11.05;100.00;94028.38;5016256;28;20797;-74
2023/03/09 01:05:35;;;;;;;2.50;1.00;;;;;;;10.95;100.00;94022.88;5015227;28;20490;-73
2023/03/09 01:08:02;;;;;;;2.20;1.20;;;;;;;11.08;100.00;94018.13;5016372;28;20205;-72
2023/03/09 01:10:28;;;;;;;2.13;1.40;;;;;;;11.16;100.00;94024.88;5016576;28;20204;-74
2023/03/09 01:12:55;;;;;;;1.20;0.87;;;;;;;11.24;100.00;94022.69;5016080;28;20229;-71
2023/03/09 01:15:22;;;;;;;0.80;0.73;;;;;;;11.27;100.00;94021.44;5015706;28;20229;-70
2023/03/09 01:17:48;;;;;;;1.30;0.80;;;;;;;11.16;100.00;94030.16;5016090;28;20495;-71
2023/03/09 01:20:16;;;;;;;2.20;1.00;;;;;;;11.21;100.00;94023.13;5016159;28;20198;-70
2023/03/09 01:22:43;;;;;;;1.43;1.10;;;;;;;11.19;100.00;94027.88;5015795;28;20226;-69
2023/03/09 01:25:10;;;;;;;1.03;0.80;;;;;;;11.24;100.00;94040.31;5015336;28;20209;-73
2023/03/09 01:27:37;;;;;;;0.93;0.70;;;;;;;11.22;100.00;94048.47;5016056;28;20587;-70
2023/03/09 01:30:04;;;;;;;1.20;1.00;;;;;;;11.16;100.00;94015.16;5016358;28;20209;-71
2023/03/09 01:32:30;;;;;;;1.67;1.00;;;;;;;11.07;100.00;94021.00;5019815;28;20232;-73
2023/03/09 01:34:57;;;;;;;3.10;0.97;;;;;;;11.15;100.00;94039.09;5021478;28;20670;-70
2023/03/09 01:37:25;;;;;;;1.40;0.77;;;;;;;11.25;100.00;94053.28;5022509;28;20217;-73
2023/03/09 01:39:51;;;;;;;0.97;0.77;;;;;;;11.16;100.00;94067.06;5022965;28;20205;-73
2023/03/09 01:42:18;;;;;;;4.57;0.80;;;;;;;11.13;100.00;94076.22;5022423;28;20220;-72
2023/03/09 01:44:44;;;;;;;0.67;0.53;;;;;;;11.09;100.00;94098.81;5022179;28;20202;-71
2023/03/09 01:47:10;;;;;;;0.77;0.70;;;;;;;11.04;100.00;94122.41;5022583;28;20198;-72
2023/03/09 01:49:41;;;;;;;0.83;0.80;;;;;;;11.06;100.00;94127.44;5022339;28;20198;-71
2023/03/09 01:52:13;;;;;;;3.70;1.03;;;;;;;10.92;100.00;94163.00;5022285;28;20229;-71
2023/03/09 01:54:48;;;;;;;1.10;0.40;;;;;;;10.56;100.00;94128.13;5022173;28;20216;-71
2023/03/09 01:57:21;;;;;;;0.67;0.67;;;;;;;10.37;100.00;94140.59;5022669;28;20196;-70
2023/03/09 01:59:51;;;;;;;0.30;0.30;;;;;;;10.16;100.00;94135.03;5021977;28;20708;-72
2023/03/09 02:02:18;;;;;;;0.50;0.40;;;;;;;9.92;100.00;94127.28;5022659;28;20224;-71
2023/03/09 02:04:47;;;;;;;1.23;0.40;;;;;;;9.92;100.00;94140.44;5022052;28;20216;-71
2023/03/09 02:07:18;;;;;;;0.30;0.30;;;;;;;9.77;100.00;94156.59;5021897;28;20569;-71
2023/03/09 02:09:49;;;;;;;0.20;0.20;;;;;;;9.72;100.00;94163.53;5022309;28;20220;-72
2023/03/09 02:12:20;;;;;;;2.00;0.57;;;;;;;9.68;100.00;94174.75;5022797;28;20225;-71
2023/03/09 02:14:46;;;;;;;0.30;0.30;;;;;;;9.53;100.00;94171.69;5021790;28;20674;-71
2023/03/09 02:17:14;;;;;;;0.30;0.30;;;;;;;9.45;100.00;94174.63;5021863;28;20563;-73
2023/03/09 02:19:53;;;;;;;0.30;0.30;;;;;;;9.51;100.00;94165.81;5022504;28;20498;-74
2023/03/09 02:22:19;;;;;;;0.40;0.40;;;;;;;9.47;100.00;94159.41;5022653;28;20229;-70
2023/03/09 02:24:56;;;;;;;0.40;0.40;;;;;;;9.53;100.00;94135.66;5021850;28;20222;-73
2023/03/09 02:27:27;;;;;;;0.20;0.20;;;;;;;9.52;100.00;94146.41;5022158;28;20681;-71
2023/03/09 02:29:54;;;;;;;0.43;0.43;;;;;;;9.47;100.00;94133.13;5022549;28;20206;-73
2023/03/09 02:32:20;;;;;;;0.20;0.20;;;;;;;9.38;100.00;94131.81;5022033;28;20229;-71
2023/03/09 02:34:47;;;;;;;1.70;0.40;;;;;;;9.33;100.00;94131.66;5021636;28;20209;-74
2023/03/09 02:37:28;;;;;;;1.73;0.47;;;;;;;9.43;100.00;94135.41;5021845;28;20198;-72
2023/03/09 02:39:58;;;;;;;0.50;0.50;;;;;;;9.29;100.00;94136.59;5022494;28;20262;-72
2023/03/09 02:42:27;;;;;;;0.30;0.30;;;;;;;9.18;100.00;94144.41;5022070;28;20221;-73
2023/03/09 02:44:55;;;;;;;0.20;0.20;;;;;;;9.18;100.00;94147.03;5018245;28;20208;-72
2023/03/09 02:47:23;;;;;;;0.40;0.30;;;;;;;9.30;100.00;94140.00;5018954;28;20674;-72
2023/03/09 02:49:49;;;;;;;1.90;0.37;;;;;;;9.14;100.00;94170.28;5018325;28;20213;-71
2023/03/09 02:52:16;;;;;;;0.30;0.30;;;;;;;9.17;100.00;94190.06;5018969;28;20239;-70
2023/03/09 02:54:42;;;;;;;0.70;0.60;;;;;;;9.12;100.00;94184.66;5018244;28;20208;-71
2023/03/09 02:57:09;;;;;;;0.40;0.37;;;;;;;9.16;100.00;94180.56;5018844;28;20639;-73
2023/03/09 02:59:36;;;;;;;0.27;0.27;;;;;;;9.15;100.00;94176.34;5018224;28;20608;-71
2023/03/09 03:02:03;;;;;;;0.30;0.30;;;;;;;8.97;100.00;94165.03;5018514;28;20206;-72
2023/03/09 03:04:30;;;;;;;1.30;0.40;;;;;;;8.99;100.00;94184.00;5017726;28;20202;-71
2023/03/09 03:06:56;;;;;;;0.63;0.40;;;;;;;9.03;100.00;94179.94;5018219;28;20201;-71
2023/03/09 03:09:23;;;;;;;0.30;0.30;;;;;;;8.88;100.00;94135.59;5018981;28;20240;-73
2023/03/09 03:11:49;;;;;;;2.30;0.50;;;;;;;8.87;100.00;94130.56;5019884;28;20214;-74
2023/03/09 03:14:16;;;;;;;3.13;0.40;;;;;;;8.92;100.00;94143.84;5018968;28;20198;-71
2023/03/09 03:16:44;;;;;;;1.33;0.40;;;;;;;8.95;100.00;94165.25;5019979;28;20455;-74
2023/03/09 03:19:10;;;;;;;2.20;0.97;;;;;;;8.79;100.00;94165.78;5019186;28;20206;-73
2023/03/09 03:21:36;;;;;;;0.40;0.40;;;;;;;8.77;100.00;94159.97;5019834;28;20674;-70
2023/03/09 03:24:03;;;;;;;0.50;0.50;;;;;;;8.80;100.00;94154.25;5018777;28;20403;-71
2023/03/09 03:26:30;;;;;;;1.17;0.50;;;;;;;8.71;100.00;94155.56;5020901;28;20217;-72
2023/03/09 03:28:56;;;;;;;1.83;0.50;;;;;;;8.78;100.00;94161.56;5019519;28;20213;-70
2023/03/09 03:31:23;;;;;;;0.93;0.43;;;;;;;8.70;100.00;94169.69;5019003;28;20197;-70
2023/03/09 03:33:50;;;;;;;1.07;0.70;;;;;;;8.74;100.00;94176.13;5018882;28;20230;-72
2023/03/09 03:36:17;;;;;;;0.93;0.40;;;;;;;8.75;100.00;94166.44;5019741;28;20217;-70
2023/03/09 03:38:43;;;;;;;2.20;0.40;;;;;;;8.77;100.00;94170.47;5018191;28;20208;-69
2023/03/09 03:41:10;;;;;;;0.40;0.40;;;;;;;8.68;100.00;94153.38;5018217;28;20212;-70
2023/03/09 03:43:36;;;;;;;0.33;0.33;;;;;;;8.76;100.00;94152.31;5017784;28;20220;-71
2023/03/09 03:46:03;;;;;;;0.37;0.30;;;;;;;8.70;100.00;94192.53;5017394;28;21317;-69
2023/03/09 03:48:29;;;;;;;0.33;0.33;;;;;;;8.74;100.00;94184.00;5017598;28;20213;-70
2023/03/09 03:50:57;;;;;;;0.50;0.30;;;;;;;8.72;100.00;94180.81;5017793;28;20210;-73
2023/03/09 03:53:23;;;;;;;0.70;0.40;;;;;;;8.62;100.00;94198.84;5015493;28;20489;-71
2023/03/09 03:55:50;;;;;;;0.77;0.77;;;;;;;8.61;100.00;94191.19;5016104;28;20209;-70
2023/03/09 03:58:16;;;;;;;0.47;0.37;;;;;;;8.61;100.00;94191.19;5017710;28;20209;-71
2023/03/09 04:00:43;;;;;;;0.60;0.40;;;;;;;8.61;100.00;94201.69;5016932;28;20204;-73
2023/03/09 04:03:09;;;;;;;0.30;0.30;;;;;;;8.56;100.00;94210.19;5017746;28;20220;-70
2023/03/09 04:05:35;;;;;;;0.47;0.47;;;;;;;8.64;100.00;94201.25;5017600;28;20208;-71
2023/03/09 04:08:04;;;;;;;4.93;1.10;;;;;;;8.79;100.00;94202.53;5017972;28;20271;-70
2023/03/09 04:10:30;;;;;;;1.73;0.60;;;;;;;8.61;100.00;94212.19;5017918;28;20229;-68
2023/03/09 04:12:57;;;;;;;1.23;0.90;;;;;;;8.78;100.00;94214.09;5017877;28;20229;-69
2023/03/09 04:15:24;;;;;;;5.20;1.13;;;;;;;8.76;100.00;94213.47;5017603;28;20201;-74
2023/03/09 04:17:51;;;;;;;2.17;1.00;;;;;;;8.78;100.00;94213.25;5017803;28;20268;-69
2023/03/09 04:20:17;;;;;;;0.83;0.77;;;;;;;8.75;100.00;94214.50;5017842;28;20198;-70
2023/03/09 04:22:44;;;;;;;0.73;0.70;;;;;;;8.76;100.00;94215.31;5018114;28;20218;-70
2023/03/09 04:25:12;;;;;;;1.90;0.67;;;;;;;8.87;100.00;94218.06;5016682;28;20217;-69
2023/03/09 04:27:38;;;;;;;0.77;0.50;;;;;;;8.78;100.00;94229.03;5017764;28;20202;-68
2023/03/09 04:30:06;;;;;;;0.60;0.47;;;;;;;8.95;100.00;94236.16;5017929;28;20213;-71
2023/03/09 04:32:32;;;;;;;0.47;0.40;;;;;;;8.88;100.00;94240.63;5017442;28;20272;-70
2023/03/09 04:34:59;;;;;;;0.90;0.70;;;;;;;8.95;100.00;94262.41;5016674;28;20198;-68
2023/03/09 04:37:26;;;;;;;0.40;0.40;;;;;;;8.97;100.00;94270.88;5018247;28;20201;-71
2023/03/09 04:39:52;;;;;;;1.57;0.60;;;;;;;9.02;100.00;94268.41;5017217;28;20237;-70
2023/03/09 04:42:20;;;;;;;1.63;0.80;;;;;;;9.10;100.00;94281.28;5016989;28;20225;-68
2023/03/09 04:44:46;;;;;;;0.70;0.70;;;;;;;9.07;100.00;94292.22;5017092;28;20213;-69
2023/03/09 04:47:13;;;;;;;1.00;0.60;;;;;;;9.16;100.00;94306.69;5017606;28;20206;-70
2023/03/09 04:49:40;;;;;;;1.90;1.13;;;;;;;9.16;100.00;94301.44;5017253;28;20206;-69
2023/03/09 04:52:07;;;;;;;1.40;0.80;;;;;;;9.18;100.00;94309.91;5016999;28;20714;-70
2023/03/09 04:54:33;;;;;;;0.70;0.50;;;;;;;9.19;100.00;94308.91;5016738;28;20225;-73
2023/03/09 04:57:00;;;;;;;0.70;0.70;;;;;;;9.17;100.00;94316.19;5017028;28;20205;-72
2023/03/09 04:59:27;;;;;;;1.00;0.90;;;;;;;9.29;100.00;94311.81;5017165;28;20210;-70
2023/03/09 05:01:54;;;;;;;1.23;0.40;;;;;;;9.24;100.00;94309.03;5017010;28;21235;-73
2023/03/09 05:04:20;;;;;;;1.30;0.90;;;;;;;9.29;100.00;94322.34;5016474;28;20198;-73
2023/03/09 05:06:47;;;;;;;1.13;0.80;;;;;;;9.33;100.00;94334.03;5016355;28;20201;-74
2023/03/09 05:09:14;;;;;;;1.03;0.77;;;;;;;9.29;100.00;94332.84;5016886;28;20316;-71
2023/03/09 05:11:40;;;;;;;4.13;0.90;;;;;;;9.21;100.00;94331.28;5016898;28;20217;-69
2023/03/09 05:14:07;;;;;;;2.13;0.80;;;;;;;9.33;100.00;94334.84;5016215;28;20229;-69
2023/03/09 05:16:35;;;;;;;1.77;1.00;;;;;;;9.44;100.00;94342.00;5016718;28;20666;-71
2023/03/09 05:19:01;;;;;;;2.33;0.90;;;;;;;9.42;100.00;94348.50;5016382;28;20210;-74
2023/03/09 05:21:28;;;;;;;0.70;0.70;;;;;;;9.38;100.00;94355.22;5016956;28;20213;-74
2023/03/09 05:23:54;;;;;;;2.20;0.50;;;;;;;9.38;100.00;94360.47;5016086;28;20256;-69
2023/03/09 05:26:21;;;;;;;4.50;1.10;;;;;;;9.42;100.00;94357.22;5016875;28;20213;-74
2023/03/09 05:28:50;;;;;;;4.67;0.83;;;;;;;9.42;100.00;94367.72;5016890;28;20202;-73
2023/03/09 05:31:16;;;;;;;1.30;0.70;;;;;;;9.33;100.00;94389.22;5017222;28;20193;-69
2023/03/09 05:33:44;;;;;;;0.60;0.47;;;;;;;9.47;100.00;94393.34;5015583;28;20264;-72
2023/03/09 05:36:17;;;;;;;6.13;0.90;;;;;;;9.55;100.00;94398.38;5016607;28;20209;-68
2023/03/09 05:38:43;;;;;;;2.97;0.73;;;;;;;9.40;100.00;94397.88;5017068;28;20206;-70
2023/03/09 05:41:10;;;;;;;2.47;1.00;;;;;;;9.45;100.00;94398.03;5016470;28;20708;-74
2023/03/09 05:43:41;;;;;;;3.80;0.70;;;;;;;9.42;100.00;94416.84;5016203;28;20244;-74
2023/03/09 05:46:08;;;;;;;1.40;0.50;;;;;;;9.36;100.00;94417.72;5017735;28;20202;-74
2023/03/09 05:48:34;;;;;;;9.53;0.73;;;;;;;9.35;100.00;94434.50;5016320;28;20403;-72
2023/03/09 05:51:04;;;;;;;10.30;1.20;;;;;;;9.36;100.00;94436.13;5016201;28;20224;-70
2023/03/09 05:53:31;;;;;;;1.57;0.70;;;;;;;9.28;100.00;94444.28;5016442;28;20324;-71
2023/03/09 05:55:59;;;;;;;4.20;0.90;;;;;;;9.30;100.00;94457.97;5016332;28;20206;-74
2023/03/09 05:58:26;;;;;;;3.33;0.80;;;;;;;9.21;100.00;94467.94;5016775;28;20204;-72
2023/03/09 06:00:52;;;;;;;2.03;0.90;;;;;;;9.30;100.00;94471.13;5015825;28;20205;-73
2023/03/09 06:03:19;;;;;;;6.07;1.30;;;;;;;9.27;100.00;94480.22;5016292;28;20249;-75
2023/03/09 06:05:45;;;;;;;3.03;0.90;;;;;;;9.39;100.00;94486.41;5015643;28;20202;-75
2023/03/09 06:08:14;;;;;;;0.80;0.70;;;;;;;9.42;100.00;94490.44;5016697;28;20198;-72
2023/03/09 06:10:41;;;;;;;6.53;1.20;;;;;;;9.33;100.00;94510.94;5016279;28;21008;-71
2023/03/09 06:13:07;;;;;;;3.10;0.77;;;;;;;9.26;100.00;94509.34;5015580;28;20237;-73
2023/03/09 06:15:34;;;;;;;4.00;2.40;;;;;;;9.28;100.00;94521.28;5015615;28;20213;-72
2023/03/09 06:18:00;;;;;;;4.40;0.90;;;;;;;9.31;100.00;94520.84;5015961;28;20293;-73
2023/03/09 06:20:27;;;;;;;5.87;1.17;;;;;;;9.35;100.00;94526.50;5019414;28;20202;-71
2023/03/09 06:22:53;;;;;;;3.90;0.90;;;;;;;9.40;100.00;94529.31;5019902;28;20271;-71
2023/03/09 06:25:21;;;;;;;2.50;2.07;;;;;;;9.48;100.00;94536.94;5019118;28;20305;-76
2023/03/09 06:27:47;;;;;;;2.43;1.10;;;;;;;9.39;100.00;94540.81;5019559;28;20205;-71
2023/03/09 06:30:15;;;;;;;6.43;1.10;;;;;;;9.55;100.00;94548.22;5020000;28;20206;-71
2023/03/09 06:32:41;;;;;;;10.67;1.57;;;;;;;9.47;100.00;94546.66;5019703;28;20221;-75
2023/03/09 06:35:08;;;;;;;2.90;1.30;;;;;;;9.45;100.00;94563.66;5019197;28;20222;-71
2023/03/09 06:37:34;;;;;;;6.30;1.70;;;;;;;9.51;100.00;94562.78;5020009;28;20579;-70
2023/03/09 06:40:01;;;;;;;8.60;1.57;;;;;;;9.50;100.00;94571.72;5019592;28;20219;-76
2023/03/09 06:42:29;;;;;;;1.13;0.73;;;;;;;9.46;100.00;94570.53;5019658;28;20359;-72
2023/03/09 06:44:55;;;;;;;8.30;1.30;;;;;;;9.45;100.00;94568.91;5018554;28;21182;-77
2023/03/09 06:47:21;;;;;;;1.10;0.80;;;;;;;9.46;100.00;94581.03;5019068;28;20201;-71
2023/03/09 06:49:48;;;;;;;8.57;1.40;;;;;;;9.49;100.00;94581.41;5019589;28;20264;-77
2023/03/09 06:52:14;;;;;;;8.67;1.30;;;;;;;9.55;100.00;94590.28;5019555;28;20222;-71
2023/03/09 06:54:41;;;;;;;6.23;1.23;;;;;;;9.63;100.00;94597.94;5018442;28;20222;-73
2023/03/09 06:57:08;;;;;;;8.23;2.03;;;;;;;9.61;100.00;94603.41;5019113;28;21174;-77
2023/03/09 06:59:36;;;;;;;6.87;1.73;;;;;;;9.84;100.00;94615.00;5019172;28;20248;-78
2023/03/09 07:02:02;;;;;;;3.83;1.10;;;;;;;9.75;100.00;94615.47;5019330;28;20201;-74
2023/03/09 07:04:29;;;;;;;1.67;1.10;;;;;;;9.64;100.00;94625.84;5018751;28;20205;-77
2023/03/09 07:06:55;;;;;;;6.37;1.17;;;;;;;9.75;100.00;94628.63;5019193;28;20208;-77
2023/03/09 07:09:22;;;;;;;2.83;1.00;;;;;;;9.74;100.00;94629.63;5019273;28;20622;-73
2023/03/09 07:11:48;;;;;;;1.57;1.10;;;;;;;9.79;100.00;94630.59;5019290;28;20702;-78
2023/03/09 07:14:14;;;;;;;2.83;0.90;;;;;;;9.77;100.00;94640.50;5018679;28;20226;-71
2023/03/09 07:16:42;;;;;;;4.83;0.90;;;;;;;9.80;100.00;94650.63;5018920;28;20206;-74
2023/03/09 07:19:09;;;;;;;1.20;0.67;;;;;;;9.81;100.00;94649.63;5018972;28;20206;-74
2023/03/09 07:21:35;;;;;;;1.70;0.90;;;;;;;9.90;100.00;94653.63;5019260;28;20209;-71
2023/03/09 07:24:02;;;;;;;4.20;0.90;;;;;;;9.86;100.00;94654.25;5018121;28;20657;-71
2023/03/09 07:26:28;;;;;;;1.03;0.70;;;;;;;10.08;100.00;94651.13;5018762;28;20943;-75
2023/03/09 07:28:55;;;;;;;1.77;0.63;;;;;;;10.11;100.00;94663.84;5018961;28;20208;-72
2023/03/09 07:31:22;;;;;;;0.57;0.50;;;;;;;10.21;100.00;94666.81;5018417;28;20260;-72
2023/03/09 07:33:50;;;;;;;1.53;1.00;;;;;;;10.18;100.00;94675.13;5017988;28;20269;-76
2023/03/09 07:36:16;;;;;;;6.00;1.10;;;;;;;10.15;100.00;94667.66;5018436;28;21074;-72
2023/03/09 07:38:43;;;;;;;3.23;0.90;;;;;;;10.34;100.00;94682.53;5018502;28;21125;-78
2023/03/09 07:41:09;;;;;;;4.10;0.93;;;;;;;10.32;100.00;94693.28;5018199;28;20210;-74
2023/03/09 07:43:43;;;;;;;3.90;0.80;;;;;;;10.32;100.00;94681.13;5018198;28;20232;-75
2023/03/09 07:46:10;;;;;;;1.63;0.77;;;;;;;10.31;100.00;94682.97;5018579;28;20210;-78
2023/03/09 07:48:38;;;;;;;3.90;0.90;;;;;;;10.34;100.00;94693.06;5018260;28;20202;-72
2023/03/09 07:51:07;;;;;;;3.00;1.03;;;;;;;10.42;100.00;94690.97;5018148;28;20281;-73
2023/03/09 07:53:35;;;;;;;5.30;1.00;;;;;;;10.27;100.00;94708.06;5017428;28;20214;-73
2023/03/09 07:56:03;;;;;;;7.97;1.00;;;;;;;10.31;100.00;94711.09;5017884;28;21215;-72
2023/03/09 07:58:30;;;;;;;0.60;0.40;;;;;;;10.32;100.00;94706.44;5019428;28;20202;-71
2023/03/09 08:00:56;;;;;;;4.47;1.00;;;;;;;10.22;100.00;94715.81;5018356;28;20209;-71
2023/03/09 08:03:23;;;;;;;7.37;2.10;;;;;;;10.21;100.00;94713.38;5017508;28;20312;-72
2023/03/09 08:05:54;;;;;;;3.60;0.60;;;;;;;10.21;100.00;94722.09;5017723;28;20210;-72
2023/03/09 08:08:22;;;;;;;7.83;1.37;;;;;;;10.32;100.00;94726.66;5018330;28;20249;-71
2023/03/09 08:10:49;;;;;;;3.90;0.77;;;;;;;10.25;100.00;94736.44;5017585;28;20662;-72
2023/03/09 08:13:15;;;;;;;0.80;0.80;;;;;;;10.18;100.00;94730.41;5018241;28;20225;-72
2023/03/09 08:15:42;;;;;;;2.30;0.60;;;;;;;10.26;100.00;94739.88;5017032;28;20446;-72
2023/03/09 08:18:08;;;;;;;0.77;0.53;;;;;;;10.18;100.00;94734.88;5017911;28;20206;-72
2023/03/09 08:20:36;;;;;;;2.37;0.50;;;;;;;10.32;100.00;94743.28;5018122;28;20202;-71
2023/03/09 08:23:02;;;;;;;4.10;0.90;;;;;;;10.48;100.00;94742.78;5017071;28;20249;-71
2023/03/09 08:25:31;;;;;;;3.93;0.80;;;;;;;10.59;100.00;94743.91;5017039;28;20209;-71
2023/03/09 08:27:58;;;;;;;2.27;0.87;;;;;;;10.51;100.00;94759.97;5017671;28;20209;-73
2023/03/09 08:30:25;;;;;;;3.00;0.50;;;;;;;10.47;100.00;94741.16;5016880;28;20249;-72
2023/03/09 08:32:53;;;;;;;1.53;1.17;;;;;;;10.50;100.00;94739.94;5017232;28;20228;-71
2023/03/09 08:35:22;;;;;;;1.23;0.60;;;;;;;10.48;100.00;94748.03;5016212;28;20229;-71
2023/03/09 08:37:49;;;;;;;2.10;0.80;;;;;;;10.65;100.00;94748.34;5017505;28;20206;-71
2023/03/09 08:40:16;;;;;;;2.97;0.77;;;;;;;10.80;100.00;94746.22;5017582;28;20690;-72
2023/03/09 08:42:44;;;;;;;0.93;0.80;;;;;;;10.98;100.00;94754.97;5016698;28;20226;-72
2023/03/09 08:45:12;;;;;;;3.00;0.90;;;;;;;11.12;100.00;94751.22;5016991;28;20292;-73
2023/03/09 08:47:39;;;;;;;1.90;0.97;;;;;;;11.19;100.00;94757.25;5017501;28;20209;-72
2023/03/09 08:50:07;;;;;;;2.73;1.07;;;;;;;11.16;99.30;94763.78;5016936;28;20252;-71
2023/03/09 08:52:36;;;;;;;0.70;0.70;;;;;;;11.39;98.69;94778.97;5017276;28;20218;-72
2023/03/09 08:55:03;;;;;;;2.47;1.13;;;;;;;11.48;96.92;94781.13;5016547;28;20226;-72
2023/03/09 08:57:30;;;;;;;5.40;1.90;;;;;;;11.43;95.29;94794.16;5017160;28;20202;-72
2023/03/09 08:59:58;;;;;;;4.43;0.83;;;;;;;11.36;95.91;94788.13;5016538;28;20205;-71
2023/03/09 09:02:24;;;;;;;2.70;1.43;;;;;;;11.38;96.18;94793.16;5017268;28;20225;-72
2023/03/09 09:04:51;;;;;;;0.63;0.60;;;;;;;11.29;93.05;94784.75;5016842;28;20205;-71
2023/03/09 09:07:20;;;;;;;2.80;1.07;;;;;;;11.41;93.28;94790.91;5016719;28;20202;-72
2023/03/09 09:09:47;;;;;;;4.20;0.93;;;;;;;11.65;93.67;94776.94;5016775;28;20247;-72
2023/03/09 09:12:13;;;;;;;3.97;1.07;;;;;;;11.77;91.79;94777.81;5017737;28;20225;-73
2023/03/09 09:14:40;;;;;;;1.40;1.20;;;;;;;11.86;91.10;94777.31;5016202;28;20240;-72
2023/03/09 09:17:08;;;;;;;5.73;0.77;;;;;;;12.13;90.00;94783.91;5016353;28;20256;-72
2023/03/09 09:19:35;;;;;;;0.50;0.50;;;;;;;11.96;89.38;94795.25;5017069;28;21267;-71
2023/03/09 09:22:01;;;;;;;2.20;0.93;;;;;;;11.98;89.62;94790.59;5017052;28;20217;-73
2023/03/09 09:24:32;;;;;;;6.70;1.10;;;;;;;12.27;90.66;94806.47;5016143;28;20209;-72
2023/03/09 09:26:59;;;;;;;4.10;1.33;;;;;;;12.37;88.11;94801.47;5016814;28;20228;-70
2023/03/09 09:29:26;;;;;;;4.60;1.50;;;;;;;12.53;89.29;94809.59;5016439;28;20208;-72
2023/03/09 09:31:53;;;;;;;1.37;0.60;;;;;;;12.22;86.40;94804.50;5016190;28;20305;-72
2023/03/09 09:34:21;;;;;;;3.07;0.90;;;;;;;12.17;87.71;94812.28;5016035;28;20225;-70
2023/03/09 09:36:48;;;;;;;3.67;1.10;;;;;;;12.13;86.20;94806.84;5016474;28;20205;-72
2023/03/09 09:39:15;;;;;;;2.07;0.70;;;;;;;12.44;86.89;94823.34;5016543;28;20223;-71
2023/03/09 09:41:46;;;;;;;3.93;1.17;;;;;;;12.44;87.27;94813.56;5017040;28;20210;-70
2023/03/09 09:44:16;;;;;;;6.73;0.90;;;;;;;12.26;85.90;94816.22;5015710;28;20240;-71
2023/03/09 09:46:43;;;;;;;1.07;0.70;;;;;;;12.37;86.87;94810.22;5016390;28;20214;-71
2023/03/09 09:49:16;;;;;;;1.00;0.60;;;;;;;12.61;85.39;94811.91;5016281;28;20284;-72
2023/03/09 09:52:06;;;;;;;6.67;0.73;;;;;;;12.55;82.43;94814.66;5015949;28;20213;-72
2023/03/09 09:54:40;;;;;;;1.10;0.80;;;;;;;12.34;84.08;94808.00;5018684;28;20241;-72
2023/03/09 09:57:14;;;;;;;2.97;0.80;;;;;;;12.48;83.90;94808.66;5020128;28;20215;-71
2023/03/09 09:59:43;;;;;;;1.47;0.93;;;;;;;12.46;83.55;94816.81;5020928;28;20206;-72
2023/03/09 10:02:34;;;;;;;4.97;0.93;;;;;;;12.50;83.44;94819.78;5020453;28;20213;-72
2023/03/09 10:05:05;;;;;;;1.93;0.70;;;;;;;12.70;83.67;94813.22;5019902;28;20667;-72
2023/03/09 10:07:35;;;;;;;2.60;0.60;;;;;;;12.83;82.71;94813.84;5020361;28;20776;-72
2023/03/09 10:10:06;;;;;;;1.90;0.70;;;;;;;13.20;80.38;94819.84;5020239;28;20663;-72
2023/03/09 10:12:33;;;;;;;5.03;1.00;;;;;;;13.39;80.64;94812.41;5020365;28;20233;-73
2023/03/09 10:15:05;;;;;;;1.40;0.83;;;;;;;13.46;79.80;94821.03;5019311;28;20702;-74
2023/03/09 10:17:35;;;;;;;1.13;0.80;;;;;;;12.99;78.51;94830.94;5020257;28;20289;-72
2023/03/09 10:20:12;;;;;;;0.53;0.50;;;;;;;12.98;79.74;94822.22;5020220;28;20202;-73
2023/03/09 10:22:42;;;;;;;2.83;0.67;;;;;;;12.96;79.98;94826.13;5020039;28;20225;-73
2023/03/09 10:25:12;;;;;;;3.30;0.50;;;;;;;12.87;78.16;94828.25;5019437;28;20209;-73
2023/03/09 10:27:42;;;;;;;1.70;0.50;;;;;;;12.76;78.55;94830.84;5019526;28;20342;-74
2023/03/09 10:30:20;;;;;;;0.97;0.63;;;;;;;13.08;78.12;94827.75;5019398;28;21276;-73
2023/03/09 10:32:53;;;;;;;2.80;0.80;;;;;;;13.06;78.51;94826.34;5018701;28;20229;-72
2023/03/09 10:35:22;;;;;;;2.07;0.90;;;;;;;13.07;80.15;94828.81;5018923;28;20245;-71
2023/03/09 10:37:51;;;;;;;0.47;0.40;;;;;;;13.12;79.91;94836.03;5019989;28;20316;-72
2023/03/09 10:40:20;;;;;;;1.77;0.97;;;;;;;13.60;79.01;94838.31;5018979;28;20201;-73
2023/03/09 10:42:47;;;;;;;1.15;0.75;;;;;;;13.56;77.58;94829.22;5018767;28;20564;-72
2023/03/09 10:45:25;;;;;;;3.30;0.90;;;;;;;13.72;76.87;94833.84;5019005;28;20206;-72
2023/03/09 10:47:56;;;;;;;1.93;0.70;;;;;;;13.82;76.45;94839.38;5018780;28;20205;-72
2023/03/09 10:50:25;;;;;;;2.03;0.70;;;;;;;13.76;74.37;94837.66;5020007;28;20206;-72
2023/03/09 10:52:54;;;;;;;3.42;0.88;;;;;;;13.82;74.61;94841.22;5019233;28;20317;-72
2023/03/09 10:55:46;;;;;;;2.92;0.75;;;;;;;13.83;73.95;94858.72;5018971;28;20225;-72
2023/03/09 10:58:21;;;;;;;3.67;0.90;;;;;;;13.77;73.75;94841.91;4999678;28;20202;-73
2023/03/09 11:01:02;;;;;;;4.90;0.93;;;;;;;13.71;69.62;94863.19;5018946;28;20225;-73
2023/03/09 11:03:36;;;;;;;2.45;0.60;;;;;;;13.52;69.36;94864.31;5018687;28;20221;-73
2023/03/09 11:06:19;;;;;;;1.17;0.50;;;;;;;13.53;67.74;94856.16;5018394;28;20194;-73
2023/03/09 11:08:55;;;;;;;1.13;0.60;;;;;;;13.90;69.75;94876.09;5019360;28;20744;-72
2023/03/09 11:11:24;;;;;;;1.70;0.40;;;;;;;14.18;69.75;94869.09;5018843;28;20201;-72
2023/03/09 11:13:51;;;;;;;3.50;1.00;;;;;;;14.17;69.22;94872.78;5018426;28;20226;-72
2023/03/09 11:16:21;;;;;;;2.47;0.67;;;;;;;14.17;68.70;94888.69;5019357;28;20264;-72
2023/03/09 11:18:49;;;;;;;1.33;0.40;;;;;;;13.87;69.47;94873.91;5019246;28;20213;-72
2023/03/09 11:21:22;;;;;;;2.33;0.40;;;;;;;13.87;68.25;94881.84;5018762;28;20741;-72
2023/03/09 11:23:54;;;;;;;1.65;0.55;;;;;;;13.92;69.21;94879.31;5018216;28;20641;-72
2023/03/09 11:26:25;;;;;;;1.17;0.40;;;;;;;13.88;68.11;94899.34;5019082;28;20213;-71
2023/03/09 11:28:58;;;;;;;0.90;0.43;;;;;;;13.67;67.36;94912.31;5018717;28;21057;-72
2023/03/09 11:31:32;;;;;;;1.90;0.40;;;;;;;13.81;66.46;94889.91;5018591;28;20205;-72
2023/03/09 11:33:59;;;;;;;2.47;0.53;;;;;;;13.88;66.59;94902.00;5018257;28;20634;-72
2023/03/09 11:36:32;;;;;;;0.73;0.50;;;;;;;13.98;66.37;94907.53;5018544;28;20225;-71